createdAt,value
2022-10-14T00:01:10.393Z,15.67
2022-10-14T00:03:39.614Z,17.93
2022-10-14T00:06:08.600Z,18.37
2022-10-14T00:08:36.382Z,18.77
2022-10-14T00:11:07.845Z,14.93
2022-10-14T00:13:36.177Z,16.97
2022-10-14T00:16:07.179Z,15.10
2022-10-14T00:18:34.884Z,19.47
2022-10-14T00:21:03.506Z,20.57
2022-10-14T00:23:31.400Z,21.53
2022-10-14T00:25:59.146Z,20.83
2022-10-14T00:28:26.955Z,19.57
2022-10-14T00:30:55.941Z,21.47
2022-10-14T00:33:25.692Z,20.83
2022-10-14T00:35:57.739Z,20.60
2022-10-14T00:38:25.543Z,30.77
2022-10-14T00:40:53.857Z,19.33
2022-10-14T00:43:22.306Z,22.87
2022-10-14T00:45:50.092Z,19.57
2022-10-14T00:48:19.070Z,22.20
2022-10-14T00:50:51.616Z,22.73
2022-10-14T00:53:19.465Z,20.00
2022-10-14T00:55:47.537Z,21.20
2022-10-14T00:58:15.741Z,24.63
2022-10-14T01:00:43.917Z,25.17
2022-10-14T01:03:19.919Z,23.97
2022-10-14T01:05:54.182Z,25.30
2022-10-14T01:08:28.546Z,24.40
2022-10-14T01:11:05.102Z,24.33
2022-10-14T01:13:35.135Z,28.20
2022-10-14T01:16:22.131Z,25.50
2022-10-14T01:19:06.503Z,24.37
2022-10-14T01:21:39.910Z,25.43
2022-10-14T01:24:42.485Z,24.73
2022-10-14T01:27:35.700Z,25.40
2022-10-14T01:30:17.547Z,27.80
2022-10-14T01:33:00.430Z,24.90
2022-10-14T01:35:37.442Z,26.60
2022-10-14T01:38:09.797Z,25.10
2022-10-14T01:40:42.741Z,23.07
2022-10-14T01:43:13.375Z,24.77
2022-10-14T01:45:45.552Z,23.63
2022-10-14T01:48:16.031Z,28.53
2022-10-14T01:50:47.160Z,25.63
2022-10-14T01:53:19.002Z,25.70
2022-10-14T01:55:49.015Z,24.83
2022-10-14T01:58:18.786Z,24.33
2022-10-14T02:00:48.880Z,27.50
2022-10-14T02:03:16.626Z,24.03
2022-10-14T02:05:48.182Z,28.27
2022-10-14T02:08:26.077Z,26.50
2022-10-14T02:11:06.825Z,27.03
2022-10-14T02:13:54.478Z,26.53
2022-10-14T02:16:33.861Z,26.00
2022-10-14T02:19:06.594Z,24.50
2022-10-14T02:21:39.369Z,30.93
2022-10-14T02:24:11.888Z,23.57
2022-10-14T02:26:41.591Z,29.33
2022-10-14T02:29:09.658Z,28.10
2022-10-14T02:31:40.818Z,24.60
2022-10-14T02:34:13.508Z,26.90
2022-10-14T02:36:42.853Z,26.27
2022-10-14T02:39:14.650Z,29.33
2022-10-14T02:41:42.590Z,26.40
2022-10-14T02:44:10.330Z,25.20
2022-10-14T02:46:41.061Z,23.63
2022-10-14T02:49:08.784Z,24.50
2022-10-14T02:51:36.529Z,25.33
2022-10-14T02:54:04.426Z,22.57
2022-10-14T02:56:32.212Z,24.17
2022-10-14T02:58:59.965Z,23.33
2022-10-14T03:01:27.739Z,22.67
2022-10-14T03:03:56.822Z,23.30
2022-10-14T03:06:24.769Z,22.70
2022-10-14T03:08:52.619Z,24.30
2022-10-14T03:11:20.357Z,22.07
2022-10-14T03:13:48.066Z,21.50
2022-10-14T03:16:15.837Z,28.33
2022-10-14T03:18:43.542Z,21.70
2022-10-14T03:21:12.669Z,24.77
2022-10-14T03:23:40.405Z,25.30
2022-10-14T03:26:13.076Z,26.33
2022-10-14T03:28:41.729Z,22.23
2022-10-14T03:31:09.720Z,22.20
2022-10-14T03:33:37.445Z,21.87
2022-10-14T03:36:05.612Z,25.43
2022-10-14T03:38:35.207Z,24.17
2022-10-14T03:41:02.959Z,25.63
2022-10-14T03:43:30.746Z,26.80
2022-10-14T03:45:58.510Z,24.83
2022-10-14T03:48:26.262Z,31.67
2022-10-14T03:50:54.023Z,23.93
2022-10-14T03:53:21.739Z,24.37
2022-10-14T03:55:50.853Z,20.97
2022-10-14T03:58:19.114Z,24.80
2022-10-14T04:00:46.802Z,26.60
2022-10-14T04:03:14.512Z,22.90
2022-10-14T04:05:42.258Z,26.17
2022-10-14T04:08:10.101Z,24.30
2022-10-14T04:10:37.860Z,24.73
2022-10-14T04:13:06.947Z,24.87
2022-10-14T04:15:36.527Z,22.40
2022-10-14T04:18:04.682Z,27.57
2022-10-14T04:20:33.301Z,23.07
2022-10-14T04:23:01.239Z,26.87
2022-10-14T04:25:28.991Z,24.93
2022-10-14T04:27:56.762Z,24.73
2022-10-14T04:30:25.870Z,27.07
2022-10-14T04:32:53.623Z,22.93
2022-10-14T04:35:21.356Z,23.83
2022-10-14T04:37:49.078Z,27.53
2022-10-14T04:40:16.977Z,28.40
2022-10-14T04:42:44.683Z,26.37
2022-10-14T04:45:12.450Z,23.53
2022-10-14T04:47:46.166Z,26.80
2022-10-14T04:50:16.281Z,27.20
2022-10-14T04:52:44.000Z,25.00
2022-10-14T04:55:12.126Z,26.10
2022-10-14T04:57:43.144Z,25.13
2022-10-14T05:00:12.518Z,24.50
2022-10-14T05:02:41.623Z,26.57
2022-10-14T05:05:10.465Z,25.63
2022-10-14T05:07:38.423Z,23.80
2022-10-14T05:10:06.896Z,25.10
2022-10-14T05:12:34.676Z,26.27
2022-10-14T05:15:03.389Z,23.40
2022-10-14T05:17:31.148Z,25.57
2022-10-14T05:20:00.414Z,25.90
2022-10-14T05:22:28.204Z,28.37
2022-10-14T05:24:55.923Z,29.10
2022-10-14T05:27:23.949Z,24.07
2022-10-14T05:29:51.689Z,26.03
2022-10-14T05:32:19.734Z,25.47
2022-10-14T05:34:47.878Z,26.43
2022-10-14T05:37:16.959Z,23.53
2022-10-14T05:39:44.652Z,24.20
2022-10-14T05:42:12.371Z,22.93
2022-10-14T05:44:40.123Z,23.00
2022-10-14T05:47:07.849Z,26.53
2022-10-14T05:49:35.510Z,29.40
2022-10-14T05:52:03.307Z,28.77
2022-10-14T05:54:32.392Z,25.17
2022-10-14T05:57:00.099Z,29.80
2022-10-14T05:59:29.647Z,30.43
2022-10-14T06:01:57.571Z,27.37
2022-10-14T06:04:25.269Z,27.70
2022-10-14T06:06:53.107Z,32.83
2022-10-14T06:09:21.375Z,29.33
2022-10-14T06:11:50.715Z,31.67
2022-10-14T06:14:18.607Z,31.93
2022-10-14T06:16:46.341Z,32.17
2022-10-14T06:19:14.203Z,29.77
2022-10-14T06:21:41.876Z,30.63
2022-10-14T06:24:09.755Z,28.67
2022-10-14T06:26:37.906Z,29.43
2022-10-14T06:29:07.009Z,28.97
2022-10-14T06:31:35.083Z,30.93
2022-10-14T06:34:06.070Z,28.80
2022-10-14T06:36:33.853Z,29.17
2022-10-14T06:39:01.669Z,29.60
2022-10-14T06:41:29.435Z,27.40
2022-10-14T06:43:57.175Z,28.63
2022-10-14T06:46:26.401Z,30.20
2022-10-14T06:48:54.250Z,26.07
2022-10-14T06:51:21.939Z,30.63
2022-10-14T06:53:49.622Z,27.37
2022-10-14T06:56:18.047Z,26.87
2022-10-14T06:58:45.788Z,31.70
2022-10-14T07:01:13.553Z,28.47
2022-10-14T07:03:42.658Z,32.20
2022-10-14T07:06:10.719Z,32.70
2022-10-14T07:08:38.435Z,32.83
2022-10-14T07:11:07.139Z,36.67
2022-10-14T07:13:35.238Z,34.73
2022-10-14T07:16:03.295Z,35.10
2022-10-14T07:18:31.139Z,32.90
2022-10-14T07:21:03.001Z,32.90
2022-10-14T07:23:30.729Z,36.00
2022-10-14T07:25:58.603Z,36.77
2022-10-14T07:28:26.634Z,34.47
2022-10-14T07:30:59.322Z,35.07
2022-10-14T07:33:27.200Z,34.10
2022-10-14T07:35:55.001Z,37.20
2022-10-14T07:38:24.078Z,35.53
2022-10-14T07:41:03.413Z,37.87
2022-10-14T07:43:32.278Z,39.70
2022-10-14T07:46:02.659Z,40.77
2022-10-14T07:48:45.357Z,42.33
2022-10-14T07:51:20.054Z,40.70
2022-10-14T07:53:50.109Z,41.80
2022-10-14T07:56:17.838Z,44.07
2022-10-14T07:58:46.367Z,48.03
2022-10-14T08:01:15.519Z,43.07
2022-10-14T08:03:44.362Z,42.67
2022-10-14T08:06:13.012Z,40.93
2022-10-14T08:08:41.931Z,40.87
2022-10-14T08:11:13.279Z,43.87
2022-10-14T08:13:45.063Z,39.43
2022-10-14T08:16:16.145Z,41.87
2022-10-14T08:18:44.239Z,43.13
2022-10-14T08:21:12.525Z,34.90
2022-10-14T08:23:40.533Z,41.50
2022-10-14T08:26:19.682Z,34.00
2022-10-14T08:28:47.518Z,36.80
2022-10-14T08:31:15.352Z,33.73
2022-10-14T08:33:43.123Z,36.20
2022-10-14T08:36:11.078Z,34.33
2022-10-14T08:38:38.773Z,30.40
2022-10-14T08:41:24.919Z,29.33
2022-10-14T08:44:00.205Z,30.87
2022-10-14T08:46:32.024Z,24.00
2022-10-14T08:49:04.484Z,22.93
2022-10-14T08:51:33.347Z,24.60
2022-10-14T08:54:09.458Z,22.20
2022-10-14T08:56:39.195Z,21.93
2022-10-14T08:59:11.379Z,18.77
2022-10-14T09:01:49.601Z,18.67
2022-10-14T09:04:17.886Z,19.50
2022-10-14T09:06:47.785Z,18.27
2022-10-14T09:09:21.819Z,15.30
2022-10-14T09:11:57.892Z,17.63
2022-10-14T09:14:27.830Z,16.63
2022-10-14T09:16:59.312Z,14.67
2022-10-14T09:19:32.654Z,15.00
2022-10-14T09:22:02.266Z,14.47
2022-10-14T09:24:35.399Z,13.10
2022-10-14T09:27:08.197Z,15.30
2022-10-14T09:29:44.001Z,13.47
2022-10-14T09:32:17.091Z,12.60
2022-10-14T09:34:48.786Z,10.37
2022-10-14T09:37:26.337Z,9.90
2022-10-14T09:39:57.033Z,11.40
2022-10-14T09:42:32.280Z,11.07
2022-10-14T09:45:12.263Z,7.53
2022-10-14T09:47:45.972Z,8.03
2022-10-14T09:50:23.517Z,7.50
2022-10-14T09:52:54.203Z,8.33
2022-10-14T09:55:24.371Z,8.47
2022-10-14T09:58:09.412Z,7.37
2022-10-14T10:00:38.686Z,8.07
2022-10-14T10:03:07.957Z,8.13
2022-10-14T10:05:37.308Z,6.57
2022-10-14T10:08:18.023Z,5.47
2022-10-14T10:11:03.734Z,5.73
2022-10-14T10:13:43.229Z,4.37
2022-10-14T10:16:22.207Z,4.70
2022-10-14T10:18:50.717Z,5.33
2022-10-14T10:21:21.047Z,5.63
2022-10-14T10:23:57.501Z,5.37
2022-10-14T10:26:27.270Z,3.80
2022-10-14T10:28:58.450Z,3.77
2022-10-14T10:31:42.538Z,4.17
2022-10-14T10:34:38.154Z,4.37
2022-10-14T10:37:26.158Z,3.33
2022-10-14T10:40:09.885Z,4.27
2022-10-14T10:42:46.350Z,4.17
2022-10-14T10:45:36.371Z,3.87
2022-10-14T10:48:12.800Z,3.43
2022-10-14T10:50:48.504Z,4.57
2022-10-14T10:53:46.789Z,2.73
2022-10-14T10:56:26.069Z,3.53
2022-10-14T10:59:07.468Z,3.07
2022-10-14T11:01:44.770Z,2.67
2022-10-14T11:04:26.893Z,3.00
2022-10-14T11:07:27.164Z,5.03
2022-10-14T11:10:21.770Z,3.33
2022-10-14T11:12:59.645Z,3.97
2022-10-14T11:15:38.950Z,3.40
2022-10-14T11:18:14.338Z,3.50
2022-10-14T11:20:58.422Z,5.00
2022-10-14T11:23:59.807Z,4.43
2022-10-14T11:26:45.871Z,2.93
2022-10-14T11:29:30.706Z,2.87
2022-10-14T11:32:07.452Z,3.00
2022-10-14T11:34:43.964Z,2.20
2022-10-14T11:37:24.157Z,3.47
2022-10-14T11:39:58.322Z,2.87
2022-10-14T11:42:39.853Z,3.20
2022-10-14T11:45:25.536Z,2.17
2022-10-14T11:47:56.183Z,2.10
2022-10-14T11:50:30.318Z,2.40
2022-10-14T11:53:05.233Z,2.57
2022-10-14T11:55:39.180Z,2.23
2022-10-14T11:58:13.350Z,2.73
2022-10-14T12:00:45.063Z,1.80
2022-10-14T12:03:20.331Z,1.90
2022-10-14T12:05:59.319Z,2.80
2022-10-14T12:08:34.800Z,1.63
2022-10-14T12:11:08.063Z,2.70
2022-10-14T12:13:39.729Z,1.40
2022-10-14T12:16:17.773Z,1.60
2022-10-14T12:18:46.963Z,2.43
2022-10-14T12:21:22.783Z,1.47
2022-10-14T12:23:55.135Z,2.17
2022-10-14T12:26:43.205Z,1.87
2022-10-14T12:29:15.272Z,1.50
2022-10-14T12:31:43.041Z,1.50
2022-10-14T12:34:27.264Z,1.70
2022-10-14T12:36:56.329Z,1.40
2022-10-14T12:39:35.666Z,3.67
2022-10-14T12:42:06.780Z,2.07
2022-10-14T12:44:43.348Z,3.40
2022-10-14T12:47:21.162Z,2.47
2022-10-14T12:49:52.878Z,1.67
2022-10-14T12:52:26.688Z,2.73
2022-10-14T12:54:55.541Z,2.70
2022-10-14T12:57:29.618Z,2.23
2022-10-14T13:00:00.322Z,1.67
2022-10-14T13:02:33.473Z,2.20
2022-10-14T13:05:03.632Z,2.43
2022-10-14T13:07:41.442Z,2.27
2022-10-14T13:10:46.889Z,2.20
2022-10-14T13:14:07.132Z,1.70
2022-10-14T13:17:00.136Z,2.40
2022-10-14T13:19:46.723Z,2.03
2022-10-14T13:22:43.622Z,2.23
2022-10-14T13:25:17.814Z,1.97
2022-10-14T13:27:56.463Z,2.27
2022-10-14T13:30:33.917Z,2.63
2022-10-14T13:33:10.663Z,1.53
2022-10-14T13:35:48.863Z,2.13
2022-10-14T13:38:20.721Z,2.40
2022-10-14T13:40:51.317Z,1.80
2022-10-14T13:43:22.277Z,2.93
2022-10-14T13:45:53.965Z,2.07
2022-10-14T13:48:31.636Z,2.33
2022-10-14T13:51:41.612Z,1.70
2022-10-14T13:54:19.805Z,1.73
2022-10-14T14:02:39.459Z,1.80
2022-10-14T14:05:15.409Z,2.80
2022-10-14T14:08:30.199Z,1.40
2022-10-14T14:10:39.203Z,1.40
2022-10-14T14:13:14.959Z,1.50
2022-10-14T14:15:43.494Z,1.40
2022-10-14T14:18:38.196Z,2.20
2022-10-14T14:21:18.210Z,1.50
2022-10-14T14:23:54.150Z,3.07
2022-10-14T14:26:28.502Z,1.30
2022-10-14T14:28:56.259Z,1.90
2022-10-14T14:31:48.031Z,1.33
2022-10-14T14:34:17.963Z,1.57
2022-10-14T14:36:51.911Z,1.70
2022-10-14T14:39:24.518Z,1.87
2022-10-14T14:41:55.267Z,2.53
2022-10-14T14:44:26.389Z,3.00
2022-10-14T14:46:57.633Z,3.47
2022-10-14T14:49:28.899Z,1.70
2022-10-14T14:51:58.408Z,1.77
2022-10-14T14:54:28.681Z,3.20
2022-10-14T14:57:04.971Z,3.07
2022-10-14T14:59:36.439Z,3.00
2022-10-14T15:02:11.434Z,3.50
2022-10-14T15:04:39.221Z,3.93
2022-10-14T15:07:11.280Z,3.47
2022-10-14T15:09:43.095Z,4.27
2022-10-14T15:12:17.397Z,5.80
2022-10-14T15:14:48.235Z,3.50
2022-10-14T15:17:28.821Z,2.90
2022-10-14T15:19:57.705Z,2.50
2022-10-14T15:22:32.633Z,2.47
2022-10-14T15:25:02.746Z,2.77
2022-10-14T15:27:47.412Z,4.37
2022-10-14T15:30:34.508Z,2.00
2022-10-14T15:33:05.425Z,2.23
2022-10-14T15:35:34.597Z,3.07
2022-10-14T15:38:03.143Z,2.20
2022-10-14T15:40:32.827Z,2.23
2022-10-14T15:43:02.656Z,2.47
2022-10-14T15:45:30.403Z,3.07
2022-10-14T15:48:02.753Z,4.03
2022-10-14T15:50:30.684Z,3.50
2022-10-14T15:52:58.455Z,2.53
2022-10-14T15:55:28.175Z,4.37
2022-10-14T15:57:55.936Z,3.07
2022-10-14T16:00:26.064Z,3.10
2022-10-14T16:02:58.242Z,3.20
2022-10-14T16:05:26.845Z,3.67
2022-10-14T16:07:54.589Z,3.50
2022-10-14T16:10:24.063Z,5.27
2022-10-14T16:12:52.364Z,3.67
2022-10-14T16:15:36.461Z,3.30
2022-10-14T16:18:04.530Z,4.30
2022-10-14T16:20:32.950Z,3.80
2022-10-14T16:23:04.231Z,5.10
2022-10-14T16:25:36.084Z,5.10
2022-10-14T16:28:07.538Z,8.03
2022-10-14T16:30:41.090Z,5.20
2022-10-14T16:33:09.057Z,5.67
2022-10-14T16:35:36.795Z,4.57
2022-10-14T16:38:04.582Z,6.10
2022-10-14T16:40:36.576Z,7.13
2022-10-14T16:43:04.988Z,8.87
2022-10-14T16:45:32.809Z,9.47
2022-10-14T16:48:02.176Z,6.30
2022-10-14T16:50:30.072Z,6.63
2022-10-14T16:53:15.413Z,5.53
2022-10-14T16:55:43.176Z,5.63
2022-10-14T16:58:10.916Z,4.60
2022-10-14T17:00:38.627Z,3.77
2022-10-14T17:03:07.727Z,4.67
2022-10-14T17:05:35.435Z,4.93
2022-10-14T17:08:03.199Z,6.87
2022-10-14T17:10:30.855Z,6.87
2022-10-14T17:12:58.551Z,5.70
2022-10-14T17:15:26.285Z,8.67
2022-10-14T17:17:53.991Z,4.00
2022-10-14T17:20:23.043Z,4.43
2022-10-14T17:22:50.797Z,4.63
2022-10-14T17:25:19.997Z,4.70
2022-10-14T17:27:47.862Z,6.03
2022-10-14T17:30:15.758Z,7.97
2022-10-14T17:32:43.740Z,6.80
2022-10-14T17:35:14.474Z,7.70
2022-10-14T17:37:45.251Z,9.10
2022-10-14T17:40:14.241Z,9.47
2022-10-14T17:42:42.600Z,5.03
2022-10-14T17:45:12.107Z,5.17
2022-10-14T17:47:39.826Z,6.13
2022-10-14T17:50:08.907Z,4.70
2022-10-14T17:52:36.705Z,5.87
2022-10-14T17:55:06.754Z,7.37
2022-10-14T17:57:34.593Z,4.20
2022-10-14T18:00:02.393Z,5.37
2022-10-14T18:02:30.158Z,6.17
2022-10-14T18:04:57.968Z,4.90
2022-10-14T18:07:25.929Z,4.90
2022-10-14T18:09:53.693Z,6.57
2022-10-14T18:12:22.779Z,6.53
2022-10-14T18:14:50.556Z,6.37
2022-10-14T18:17:18.398Z,5.43
2022-10-14T18:19:51.820Z,6.43
2022-10-14T18:22:20.046Z,5.07
2022-10-14T18:24:47.827Z,6.30
2022-10-14T18:27:15.577Z,5.70
2022-10-14T18:29:44.706Z,13.10
2022-10-14T18:32:12.460Z,8.60
2022-10-14T18:34:40.161Z,8.77
2022-10-14T18:37:07.983Z,6.40
2022-10-14T18:39:35.723Z,7.93
2022-10-14T18:42:03.565Z,6.43
2022-10-14T18:44:31.303Z,7.63
2022-10-14T18:47:00.425Z,6.17
2022-10-14T18:49:28.193Z,8.13
2022-10-14T18:51:55.947Z,6.00
2022-10-14T18:54:24.791Z,7.73
2022-10-14T18:56:52.917Z,6.93
2022-10-14T18:59:22.961Z,7.93
2022-10-14T19:01:52.809Z,6.13
2022-10-14T19:04:23.999Z,6.00
2022-10-14T19:06:51.731Z,6.67
2022-10-14T19:09:22.226Z,8.57
2022-10-14T19:11:51.796Z,9.47
2022-10-14T19:14:21.264Z,8.43
2022-10-14T19:16:49.691Z,7.10
2022-10-14T19:19:20.292Z,7.70
2022-10-14T19:21:54.065Z,8.83
2022-10-14T19:24:21.872Z,6.73
2022-10-14T19:26:49.988Z,6.70
2022-10-14T19:29:18.109Z,7.27
2022-10-14T19:31:46.333Z,6.90
2022-10-14T19:34:16.653Z,6.30
2022-10-14T19:36:45.534Z,9.27
2022-10-14T19:39:17.253Z,6.97
2022-10-14T19:41:46.596Z,7.63
2022-10-14T19:44:15.505Z,6.53
2022-10-14T19:46:43.976Z,7.10
2022-10-14T19:49:13.455Z,7.07
2022-10-14T19:51:41.234Z,7.53
2022-10-14T19:54:09.004Z,7.87
2022-10-14T19:56:38.158Z,6.90
2022-10-14T19:59:06.002Z,8.23
2022-10-14T20:01:33.906Z,6.53
2022-10-14T20:04:03.125Z,6.40
2022-10-14T20:06:33.658Z,7.10
2022-10-14T20:09:01.433Z,6.60
2022-10-14T20:11:29.481Z,6.43
2022-10-14T20:13:58.614Z,6.07
2022-10-14T20:16:26.627Z,6.67
2022-10-14T20:18:54.413Z,7.80
2022-10-14T20:21:22.150Z,6.73
2022-10-14T20:23:50.934Z,7.90
2022-10-14T20:26:20.882Z,9.13
2022-10-14T20:28:49.889Z,5.73
2022-10-14T20:31:20.454Z,5.97
2022-10-14T20:33:48.479Z,6.53
2022-10-14T20:36:18.477Z,8.43
2022-10-14T20:38:47.165Z,7.27
2022-10-14T20:41:17.599Z,9.13
2022-10-14T20:43:46.632Z,13.90
2022-10-14T20:46:14.594Z,13.93
2022-10-14T20:48:43.839Z,10.93
2022-10-14T20:51:13.642Z,6.87
2022-10-14T20:56:14.699Z,9.70
2022-10-14T20:58:42.547Z,7.97
2022-10-14T21:01:12.144Z,6.00
2022-10-14T21:03:40.502Z,6.23
2022-10-14T21:06:11.527Z,5.47
2022-10-14T21:08:39.947Z,6.00
2022-10-14T21:11:13.690Z,5.40
2022-10-14T21:13:44.855Z,6.40
2022-10-14T21:16:20.391Z,5.67
2022-10-14T21:18:49.692Z,6.03
2022-10-14T21:21:21.817Z,6.10
2022-10-14T21:23:49.762Z,8.10
2022-10-14T21:26:17.528Z,5.83
2022-10-14T21:28:45.575Z,5.83
2022-10-14T21:31:17.558Z,6.03
2022-10-14T21:33:47.134Z,6.17
2022-10-14T21:36:16.241Z,7.60
2022-10-14T21:38:45.757Z,5.23
2022-10-14T21:41:13.765Z,7.53
2022-10-14T21:43:41.966Z,7.87
2022-10-14T21:46:12.269Z,5.30
2022-10-14T21:48:41.014Z,6.33
2022-10-14T21:51:10.590Z,6.73
2022-10-14T21:53:39.033Z,7.30
2022-10-14T21:56:09.122Z,7.97
2022-10-14T21:58:37.340Z,7.33
2022-10-14T22:01:07.025Z,6.93
2022-10-14T22:03:35.283Z,7.23
2022-10-14T22:08:40.233Z,7.43
2022-10-14T22:11:16.575Z,7.43
2022-10-14T22:13:44.354Z,6.93
2022-10-14T22:16:13.556Z,7.70
2022-10-14T22:18:43.481Z,5.57
2022-10-14T22:21:11.932Z,5.20
2022-10-14T22:23:40.366Z,5.77
2022-10-14T22:26:11.935Z,6.43
2022-10-14T22:28:40.063Z,6.33
2022-10-14T22:31:08.126Z,7.17
2022-10-14T22:33:36.935Z,5.77
2022-10-14T22:36:09.006Z,5.20
2022-10-14T22:38:37.375Z,6.33
2022-10-14T22:41:07.069Z,10.00
2022-10-14T22:43:37.005Z,7.20
2022-10-14T22:46:07.995Z,8.00
2022-10-14T22:48:36.563Z,6.20
2022-10-14T22:51:05.314Z,6.53
2022-10-14T22:53:33.643Z,6.87
2022-10-14T22:56:01.827Z,6.00
2022-10-14T22:58:29.958Z,6.60
2022-10-14T23:01:06.513Z,6.53
2022-10-14T23:03:34.671Z,6.70
2022-10-14T23:06:03.778Z,6.27
2022-10-14T23:08:31.909Z,9.43
2022-10-14T23:11:00.024Z,6.83
2022-10-14T23:13:28.189Z,7.73
2022-10-14T23:15:56.963Z,5.43
2022-10-14T23:18:27.192Z,6.33
2022-10-14T23:20:55.020Z,6.47
2022-10-14T23:23:22.911Z,6.37
2022-10-14T23:25:50.710Z,7.50
2022-10-14T23:28:18.486Z,6.97
2022-10-14T23:30:46.215Z,7.30
2022-10-14T23:33:13.959Z,6.97
2022-10-14T23:35:43.141Z,6.70
2022-10-14T23:38:13.367Z,7.23
2022-10-14T23:40:41.093Z,6.97
2022-10-14T23:43:08.905Z,7.20
2022-10-14T23:45:36.635Z,6.40
2022-10-14T23:48:04.560Z,7.00
2022-10-14T23:50:32.300Z,7.13
2022-10-14T23:53:01.317Z,6.97
2022-10-14T23:55:29.010Z,7.57
2022-10-14T23:57:56.738Z,6.77
